createdAt,value
2023-03-13T00:01:38.646Z,62.83
2023-03-13T00:04:05.772Z,62.52
2023-03-13T00:06:36.432Z,62.02
2023-03-13T00:09:05.816Z,62.02
2023-03-13T00:11:32.978Z,62.27
2023-03-13T00:14:03.021Z,62.83
2023-03-13T00:16:30.802Z,62.63
2023-03-13T00:18:59.007Z,62.72
2023-03-13T00:21:28.377Z,62.62
2023-03-13T00:23:55.901Z,62.79
2023-03-13T00:26:25.159Z,62.79
2023-03-13T00:28:53.140Z,63.31
2023-03-13T00:31:22.772Z,63.23
2023-03-13T00:33:52.378Z,62.85
2023-03-13T00:36:24.442Z,64.60
2023-03-13T00:38:52.462Z,64.47
2023-03-13T00:41:21.663Z,64.52
2023-03-13T00:43:49.084Z,64.55
2023-03-13T00:46:18.671Z,64.67
2023-03-13T00:48:46.035Z,64.13
2023-03-13T00:51:14.189Z,64.05
2023-03-13T00:53:41.890Z,64.39
2023-03-13T00:56:11.060Z,65.47
2023-03-13T00:58:40.700Z,66.75
2023-03-13T01:01:11.100Z,66.89
2023-03-13T01:03:39.752Z,65.70
2023-03-13T01:06:09.585Z,65.50
2023-03-13T01:08:36.348Z,66.57
2023-03-13T01:11:14.836Z,66.88
2023-03-13T01:13:42.374Z,67.12
2023-03-13T01:16:15.351Z,68.03
2023-03-13T01:18:45.376Z,67.29
2023-03-13T01:21:13.142Z,67.62
2023-03-13T01:23:40.192Z,67.10
2023-03-13T01:26:08.612Z,67.30
2023-03-13T01:28:36.026Z,67.41
2023-03-13T01:31:20.957Z,67.48
2023-03-13T01:33:49.855Z,66.77
2023-03-13T01:36:17.291Z,67.06
2023-03-13T01:38:44.019Z,67.16
2023-03-13T01:41:12.730Z,67.83
2023-03-13T01:43:39.903Z,68.05
2023-03-13T01:46:24.885Z,68.09
2023-03-13T01:49:11.700Z,67.37
2023-03-13T01:52:03.951Z,68.01
2023-03-13T01:54:34.993Z,68.06
2023-03-13T01:57:08.582Z,68.71
2023-03-13T02:00:08.795Z,68.58
2023-03-13T02:02:46.862Z,68.14
2023-03-13T02:05:15.160Z,67.65
2023-03-13T02:07:45.781Z,67.36
2023-03-13T02:10:16.513Z,67.77
2023-03-13T02:12:43.703Z,68.44
2023-03-13T02:15:16.657Z,67.75
2023-03-13T02:17:45.622Z,68.00
2023-03-13T02:20:14.170Z,68.52
2023-03-13T02:22:59.250Z,68.35
2023-03-13T02:25:25.795Z,68.25
2023-03-13T02:28:01.729Z,67.97
2023-03-13T02:30:30.088Z,68.10
2023-03-13T02:32:57.327Z,67.67
2023-03-13T02:35:24.505Z,67.14
2023-03-13T02:37:57.560Z,67.34
2023-03-13T02:40:32.620Z,68.23
2023-03-13T02:43:02.961Z,67.82
2023-03-13T02:45:29.979Z,68.24
2023-03-13T02:47:56.571Z,68.35
2023-03-13T02:50:24.328Z,68.02
2023-03-13T02:53:00.244Z,68.44
2023-03-13T02:55:29.739Z,68.43
2023-03-13T02:57:56.617Z,69.07
2023-03-13T03:00:26.860Z,69.44
2023-03-13T03:02:56.008Z,69.95
2023-03-13T03:05:22.888Z,70.39
2023-03-13T03:07:50.946Z,70.71
2023-03-13T03:10:18.931Z,70.21
2023-03-13T03:12:46.229Z,70.08
2023-03-13T03:15:13.791Z,70.44
2023-03-13T03:17:44.587Z,69.94
2023-03-13T03:20:12.172Z,69.60
2023-03-13T03:22:42.191Z,70.46
2023-03-13T03:25:09.659Z,70.62
2023-03-13T03:27:36.943Z,70.03
2023-03-13T03:30:07.729Z,70.05
2023-03-13T03:32:36.727Z,70.17
2023-03-13T03:35:03.599Z,70.22
2023-03-13T03:37:30.338Z,70.43
2023-03-13T03:39:58.467Z,70.17
2023-03-13T03:42:25.397Z,70.17
2023-03-13T03:44:52.076Z,69.30
2023-03-13T03:47:19.171Z,69.12
2023-03-13T03:49:47.718Z,69.02
2023-03-13T03:52:15.764Z,69.55
2023-03-13T03:54:43.806Z,69.88
2023-03-13T03:57:10.844Z,69.78
2023-03-13T03:59:39.240Z,70.06
2023-03-13T04:02:08.382Z,70.47
2023-03-13T04:04:35.688Z,69.78
2023-03-13T04:07:26.331Z,70.10
2023-03-13T04:09:53.369Z,70.58
2023-03-13T04:12:26.483Z,70.71
2023-03-13T04:14:55.121Z,71.22
2023-03-13T04:17:22.142Z,71.49
2023-03-13T04:19:49.038Z,71.18
2023-03-13T04:22:16.175Z,71.48
2023-03-13T04:24:49.373Z,70.72
2023-03-13T04:27:16.167Z,71.01
2023-03-13T04:29:45.210Z,70.72
2023-03-13T04:32:30.498Z,70.64
2023-03-13T04:35:15.867Z,69.79
2023-03-13T04:38:01.156Z,69.66
2023-03-13T04:40:56.575Z,69.97
2023-03-13T04:43:43.362Z,69.72
2023-03-13T04:46:37.289Z,70.50
2023-03-13T04:49:08.829Z,70.07
2023-03-13T04:52:08.078Z,70.42
2023-03-13T04:55:00.706Z,69.85
2023-03-13T04:57:47.835Z,70.23
2023-03-13T05:00:40.773Z,70.33
2023-03-13T05:03:26.665Z,70.57
2023-03-13T05:06:07.632Z,70.10
2023-03-13T05:08:52.455Z,70.67
2023-03-13T05:11:19.145Z,70.71
2023-03-13T05:13:57.663Z,70.65
2023-03-13T05:16:48.253Z,70.95
2023-03-13T05:19:26.924Z,70.96
2023-03-13T05:22:12.405Z,71.13
2023-03-13T05:24:44.949Z,71.65
2023-03-13T05:27:37.751Z,71.35
2023-03-13T05:30:30.499Z,71.74
2023-03-13T05:33:26.658Z,71.45
2023-03-13T05:36:19.281Z,71.52
2023-03-13T05:38:57.522Z,71.58
2023-03-13T05:41:50.257Z,71.20
2023-03-13T05:44:46.230Z,71.25
2023-03-13T05:47:26.430Z,70.99
2023-03-13T05:50:10.950Z,71.32
2023-03-13T05:53:13.165Z,71.68
2023-03-13T05:56:15.309Z,71.59
2023-03-13T05:58:52.175Z,71.79
2023-03-13T06:01:37.549Z,72.04
2023-03-13T06:04:20.961Z,72.98
2023-03-13T06:06:48.028Z,71.95
2023-03-13T06:09:16.161Z,72.78
2023-03-13T06:11:43.713Z,73.13
2023-03-13T06:14:10.697Z,72.65
2023-03-13T06:16:55.991Z,72.32
2023-03-13T06:19:25.157Z,72.36
2023-03-13T06:21:52.633Z,72.47
2023-03-13T06:24:19.328Z,73.72
2023-03-13T06:26:49.682Z,73.74
2023-03-13T06:29:16.747Z,72.69
2023-03-13T06:31:43.711Z,72.61
2023-03-13T06:34:12.448Z,73.02
2023-03-13T06:36:39.213Z,72.62
2023-03-13T06:39:06.396Z,72.90
2023-03-13T06:41:33.625Z,73.16
2023-03-13T06:44:00.412Z,72.26
2023-03-13T06:46:27.452Z,72.20
2023-03-13T06:48:54.156Z,71.53
2023-03-13T06:51:22.123Z,70.79
2023-03-13T06:53:49.278Z,71.46
2023-03-13T06:56:15.893Z,72.38
2023-03-13T06:58:42.613Z,72.70
2023-03-13T07:01:14.026Z,73.44
2023-03-13T07:03:41.652Z,72.40
2023-03-13T07:06:09.859Z,72.43
2023-03-13T07:08:37.512Z,72.36
2023-03-13T07:11:07.003Z,71.65
2023-03-13T07:13:33.845Z,70.97
2023-03-13T07:16:06.272Z,70.83
2023-03-13T07:18:34.084Z,70.49
2023-03-13T07:21:05.214Z,71.21
2023-03-13T07:23:34.324Z,71.57
2023-03-13T07:26:11.958Z,71.90
2023-03-13T07:28:38.841Z,72.55
2023-03-13T07:31:05.670Z,72.49
2023-03-13T07:33:32.960Z,72.04
2023-03-13T07:35:59.722Z,72.36
2023-03-13T07:38:26.502Z,72.32
2023-03-13T07:40:55.575Z,71.98
2023-03-13T07:43:23.236Z,72.37
2023-03-13T07:45:55.102Z,71.70
2023-03-13T07:48:24.125Z,72.08
2023-03-13T07:50:50.842Z,71.75
2023-03-13T07:53:21.398Z,72.18
2023-03-13T07:56:05.738Z,72.35
2023-03-13T07:58:34.803Z,72.71
2023-03-13T08:01:01.779Z,71.67
2023-03-13T08:03:30.283Z,70.47
2023-03-13T08:06:02.134Z,70.31
2023-03-13T08:08:29.739Z,70.13
2023-03-13T08:11:02.895Z,69.46
2023-03-13T08:13:30.743Z,69.16
2023-03-13T08:16:24.672Z,68.79
2023-03-13T08:18:54.885Z,69.53
2023-03-13T08:21:27.846Z,69.83
2023-03-13T08:23:57.094Z,70.24
2023-03-13T08:26:27.213Z,70.75
2023-03-13T08:29:07.134Z,72.00
2023-03-13T08:31:42.107Z,71.61
2023-03-13T08:34:08.872Z,70.45
2023-03-13T08:36:37.119Z,70.41
2023-03-13T08:39:17.728Z,71.06
2023-03-13T08:41:44.869Z,71.59
2023-03-13T08:44:13.749Z,72.14
2023-03-13T08:46:43.918Z,70.39
2023-03-13T08:49:11.330Z,70.66
2023-03-13T08:51:38.017Z,70.29
2023-03-13T08:54:05.108Z,70.59
2023-03-13T08:56:32.720Z,71.10
2023-03-13T08:59:01.970Z,70.72
2023-03-13T09:01:31.224Z,71.55
2023-03-13T09:04:00.018Z,70.44
2023-03-13T09:06:28.717Z,70.47
2023-03-13T09:08:58.248Z,69.10
2023-03-13T09:11:25.557Z,68.82
2023-03-13T09:13:52.202Z,69.00
2023-03-13T09:16:22.217Z,70.38
2023-03-13T09:18:50.071Z,70.47
2023-03-13T09:21:19.982Z,69.94
2023-03-13T09:23:47.617Z,69.24
2023-03-13T09:26:15.544Z,68.79
2023-03-13T09:28:42.283Z,68.28
2023-03-13T09:31:20.526Z,67.57
2023-03-13T09:33:48.486Z,69.72
2023-03-13T09:36:15.597Z,67.93
2023-03-13T09:38:42.730Z,68.01
2023-03-13T09:41:18.326Z,68.96
2023-03-13T09:44:03.506Z,67.76
2023-03-13T09:46:38.923Z,66.22
2023-03-13T09:49:13.844Z,66.87
2023-03-13T09:51:43.988Z,67.26
2023-03-13T09:54:29.061Z,66.92
2023-03-13T09:57:07.127Z,66.25
2023-03-13T09:59:55.076Z,65.80
2023-03-13T10:02:27.508Z,65.14
2023-03-13T10:05:18.882Z,63.50
2023-03-13T10:07:45.585Z,63.50
2023-03-13T10:10:18.007Z,63.87
2023-03-13T10:12:47.443Z,63.57
2023-03-13T10:15:40.121Z,64.58
2023-03-13T10:18:17.606Z,66.49
2023-03-13T10:20:47.194Z,64.88
2023-03-13T10:23:27.507Z,64.69
2023-03-13T10:25:54.191Z,64.42
2023-03-13T10:28:22.578Z,64.19
2023-03-13T10:30:54.785Z,63.51
2023-03-13T10:33:27.673Z,63.51
2023-03-13T10:36:19.618Z,63.17
2023-03-13T10:38:49.856Z,64.58
2023-03-13T10:41:36.434Z,63.63
2023-03-13T10:44:15.294Z,64.13
2023-03-13T10:46:44.752Z,63.16
2023-03-13T10:49:23.397Z,63.57
2023-03-13T10:52:01.665Z,64.32
2023-03-13T10:54:37.440Z,64.60
2023-03-13T10:57:08.613Z,65.25
2023-03-13T10:59:43.443Z,64.26
2023-03-13T11:02:23.945Z,63.35
2023-03-13T11:04:53.848Z,63.08
2023-03-13T11:07:27.741Z,62.90
2023-03-13T11:10:18.487Z,62.55
2023-03-13T11:12:48.021Z,63.41
2023-03-13T11:15:23.291Z,63.30
2023-03-13T11:18:17.720Z,61.90
2023-03-13T11:20:46.631Z,63.36
2023-03-13T11:23:29.047Z,63.64
2023-03-13T11:26:17.072Z,62.30
2023-03-13T11:29:06.501Z,61.23
2023-03-13T11:31:39.429Z,60.53
2023-03-13T11:34:35.096Z,61.21
2023-03-13T11:37:11.887Z,59.48
2023-03-13T11:40:12.787Z,61.30
2023-03-13T11:42:57.622Z,61.07
2023-03-13T11:45:50.660Z,60.38
2023-03-13T11:48:42.328Z,61.39
2023-03-13T11:51:30.774Z,59.07
2023-03-13T11:53:57.470Z,58.53
2023-03-13T11:56:30.666Z,58.44
2023-03-13T11:59:19.067Z,59.50
2023-03-13T12:01:56.586Z,60.04
2023-03-13T12:04:31.846Z,59.48
2023-03-13T12:07:26.448Z,60.17
2023-03-13T12:10:02.158Z,60.12
2023-03-13T12:12:36.619Z,59.30
2023-03-13T12:15:16.631Z,59.87
2023-03-13T12:18:01.772Z,59.08
2023-03-13T12:20:39.955Z,60.70
2023-03-13T12:23:06.737Z,58.75
2023-03-13T12:25:43.841Z,59.29
2023-03-13T12:28:29.559Z,60.31
2023-03-13T12:31:01.892Z,61.39
2023-03-13T12:33:41.880Z,60.40
2023-03-13T12:36:29.302Z,61.30
2023-03-13T12:39:06.234Z,59.86
2023-03-13T12:42:07.705Z,60.37
2023-03-13T12:44:34.823Z,59.37
2023-03-13T12:47:17.683Z,60.71
2023-03-13T12:50:06.282Z,59.82
2023-03-13T12:52:39.437Z,60.72
2023-03-13T12:55:19.194Z,60.35
2023-03-13T12:58:28.589Z,58.99
2023-03-13T13:00:57.792Z,58.68
2023-03-13T13:03:30.406Z,59.27
2023-03-13T13:06:10.292Z,58.89
2023-03-13T13:08:40.260Z,58.63
2023-03-13T13:11:39.690Z,59.77
2023-03-13T13:14:18.500Z,59.84
2023-03-13T13:16:56.200Z,58.31
2023-03-13T13:19:25.830Z,60.23
2023-03-13T13:22:30.332Z,58.17
2023-03-13T13:24:58.154Z,58.85
2023-03-13T13:27:36.844Z,58.34
2023-03-13T13:30:18.653Z,57.35
2023-03-13T13:32:49.732Z,57.50
2023-03-13T13:35:29.403Z,56.23
2023-03-13T13:38:19.742Z,57.32
2023-03-13T13:41:01.651Z,57.49
2023-03-13T13:43:33.028Z,57.10
2023-03-13T13:46:07.232Z,56.18
2023-03-13T13:48:43.324Z,56.30
2023-03-13T13:51:11.199Z,56.65
2023-03-13T13:53:47.906Z,57.05
2023-03-13T13:56:38.122Z,56.24
2023-03-13T13:59:26.959Z,56.87
2023-03-13T14:02:10.392Z,57.51
2023-03-13T14:05:06.038Z,55.76
2023-03-13T14:07:41.848Z,56.35
2023-03-13T14:10:27.230Z,56.39
2023-03-13T14:12:59.728Z,56.74
2023-03-13T14:15:31.755Z,57.37
2023-03-13T14:18:09.381Z,56.47
2023-03-13T14:20:38.104Z,56.96
2023-03-13T14:23:06.398Z,57.71
2023-03-13T14:25:45.279Z,57.57
2023-03-13T14:28:22.805Z,57.26
2023-03-13T14:30:52.118Z,56.94
2023-03-13T14:33:19.650Z,57.31
2023-03-13T14:35:47.287Z,57.14
2023-03-13T14:38:26.109Z,57.11
2023-03-13T14:40:55.556Z,57.00
2023-03-13T14:43:27.069Z,56.58
2023-03-13T14:45:54.537Z,55.88
2023-03-13T14:48:31.962Z,57.40
2023-03-13T14:51:15.198Z,56.90
2023-03-13T14:53:54.623Z,56.50
2023-03-13T14:56:21.483Z,56.16
2023-03-13T14:58:50.113Z,56.74
2023-03-13T15:01:27.191Z,56.11
2023-03-13T15:03:54.036Z,56.79
2023-03-13T15:06:24.188Z,56.97
2023-03-13T15:09:10.828Z,57.59
2023-03-13T15:11:55.149Z,55.32
2023-03-13T15:14:40.279Z,56.04
2023-03-13T15:17:16.424Z,56.50
2023-03-13T15:19:47.459Z,57.47
2023-03-13T15:22:15.297Z,57.63
2023-03-13T15:24:46.780Z,56.73
2023-03-13T15:27:23.222Z,57.80
2023-03-13T15:29:50.074Z,57.92
2023-03-13T15:32:27.760Z,56.75
2023-03-13T15:34:58.716Z,57.17
2023-03-13T15:37:26.478Z,57.32
2023-03-13T15:39:54.592Z,57.33
2023-03-13T15:42:22.457Z,56.86
2023-03-13T15:44:49.063Z,57.81
2023-03-13T15:47:21.040Z,57.27
2023-03-13T15:49:47.997Z,57.21
2023-03-13T15:52:20.135Z,58.19
2023-03-13T15:54:47.058Z,57.35
2023-03-13T15:57:16.841Z,57.85
2023-03-13T15:59:44.349Z,57.94
2023-03-13T16:02:16.121Z,57.89
2023-03-13T16:04:43.931Z,58.56
2023-03-13T16:07:15.886Z,58.98
2023-03-13T16:09:43.632Z,58.87
2023-03-13T16:12:11.156Z,58.93
2023-03-13T16:14:38.623Z,58.20
2023-03-13T16:17:15.276Z,58.23
2023-03-13T16:19:42.666Z,59.31
2023-03-13T16:22:09.484Z,58.86
2023-03-13T16:24:36.302Z,58.79
2023-03-13T16:27:05.865Z,58.38
2023-03-13T16:29:32.596Z,58.62
2023-03-13T16:31:59.212Z,59.19
2023-03-13T16:34:26.088Z,59.76
2023-03-13T16:36:53.032Z,59.22
2023-03-13T16:39:19.676Z,59.92
2023-03-13T16:41:46.356Z,59.21
2023-03-13T16:44:13.128Z,59.09
2023-03-13T16:46:46.027Z,59.12
2023-03-13T16:49:16.782Z,59.85
2023-03-13T16:51:43.425Z,59.87
2023-03-13T16:54:12.095Z,59.22
2023-03-13T16:56:43.077Z,60.04
2023-03-13T16:59:21.539Z,60.55
2023-03-13T17:01:48.300Z,59.85
2023-03-13T17:04:14.998Z,60.02
2023-03-13T17:06:44.721Z,59.37
2023-03-13T17:09:17.319Z,60.27
2023-03-13T17:11:44.958Z,60.19
2023-03-13T17:14:11.662Z,59.91
2023-03-13T17:16:43.701Z,58.92
2023-03-13T17:19:14.382Z,59.84
2023-03-13T17:21:43.273Z,58.99
2023-03-13T17:24:11.730Z,59.46
2023-03-13T17:26:40.042Z,59.36
2023-03-13T17:29:08.577Z,58.81
2023-03-13T17:31:39.776Z,58.88
2023-03-13T17:34:07.520Z,58.76
2023-03-13T17:36:34.887Z,58.81
2023-03-13T17:39:04.792Z,59.08
2023-03-13T17:41:33.693Z,58.77
2023-03-13T17:44:00.551Z,59.06
2023-03-13T17:46:47.983Z,59.61
2023-03-13T17:49:17.267Z,58.60
2023-03-13T17:51:46.254Z,59.15
2023-03-13T17:54:15.681Z,59.29
2023-03-13T17:56:43.807Z,59.55
2023-03-13T17:59:15.889Z,60.43
2023-03-13T18:01:43.070Z,60.09
2023-03-13T18:04:11.003Z,59.95
2023-03-13T18:06:42.978Z,59.28
2023-03-13T18:09:27.801Z,59.37
2023-03-13T18:11:54.516Z,59.93
2023-03-13T18:14:22.232Z,59.72
2023-03-13T18:16:50.431Z,59.94
2023-03-13T18:19:21.211Z,60.09
2023-03-13T18:21:51.915Z,60.66
2023-03-13T18:24:19.234Z,61.32
2023-03-13T18:26:47.527Z,61.26
2023-03-13T18:29:29.187Z,60.98
2023-03-13T18:31:58.866Z,61.04
2023-03-13T18:34:26.331Z,60.66
2023-03-13T18:36:54.092Z,61.09
2023-03-13T18:39:21.631Z,61.79
2023-03-13T18:41:49.941Z,61.37
2023-03-13T18:44:19.043Z,61.00
2023-03-13T18:46:45.906Z,60.91
2023-03-13T18:49:20.299Z,61.78
2023-03-13T18:51:48.492Z,61.97
2023-03-13T18:54:15.590Z,62.49
2023-03-13T18:56:44.475Z,62.20
2023-03-13T18:59:13.628Z,62.73
2023-03-13T19:01:40.405Z,62.75
2023-03-13T19:04:07.271Z,62.83
2023-03-13T19:06:35.975Z,63.32
2023-03-13T19:12:12.148Z,64.99
2023-03-13T19:14:38.919Z,64.89
2023-03-13T19:17:12.014Z,65.10
2023-03-13T19:19:38.761Z,65.21
2023-03-13T19:22:05.353Z,66.33
2023-03-13T19:24:32.244Z,66.73
2023-03-13T19:26:59.813Z,66.75
2023-03-13T19:29:28.255Z,66.91
2023-03-13T19:31:55.134Z,67.36
2023-03-13T19:34:22.381Z,67.22
2023-03-13T19:36:49.565Z,68.28
2023-03-13T19:39:18.722Z,68.86
2023-03-13T19:41:47.894Z,69.76
2023-03-13T19:44:15.345Z,70.49
2023-03-13T19:46:43.508Z,71.64
2023-03-13T19:49:16.652Z,71.59
2023-03-13T19:51:43.784Z,72.03
2023-03-13T19:54:11.481Z,72.30
2023-03-13T19:56:40.160Z,73.60
2023-03-13T19:59:14.183Z,73.30
2023-03-13T20:01:41.181Z,74.26
2023-03-13T20:04:08.050Z,74.43
2023-03-13T20:06:35.769Z,74.55
2023-03-13T20:09:09.165Z,75.11
2023-03-13T20:11:36.885Z,74.69
2023-03-13T20:14:04.681Z,74.89
2023-03-13T20:16:33.730Z,75.91
2023-03-13T20:19:02.214Z,75.84
2023-03-13T20:21:34.542Z,76.81
2023-03-13T20:24:01.450Z,77.24
2023-03-13T20:26:29.324Z,77.08
2023-03-13T20:28:56.812Z,78.35
2023-03-13T20:31:26.429Z,79.17
2023-03-13T20:33:53.402Z,79.53
2023-03-13T20:36:21.016Z,79.68
2023-03-13T20:38:48.208Z,80.31
2023-03-13T20:41:16.214Z,80.78
2023-03-13T20:43:43.597Z,81.13
2023-03-13T20:46:10.383Z,81.70
2023-03-13T20:48:39.563Z,81.40
2023-03-13T20:51:08.434Z,82.37
2023-03-13T20:53:36.656Z,82.19
2023-03-13T20:56:06.614Z,82.49
2023-03-13T20:58:34.514Z,82.61
2023-03-13T21:01:02.584Z,82.92
2023-03-13T21:03:29.617Z,83.49
2023-03-13T21:05:56.218Z,84.11
2023-03-13T21:08:23.106Z,84.19
2023-03-13T21:10:49.741Z,84.33
2023-03-13T21:13:16.559Z,84.38
2023-03-13T21:15:43.145Z,85.67
2023-03-13T21:18:10.001Z,85.91
2023-03-13T21:20:38.536Z,85.65
2023-03-13T21:23:05.250Z,85.68
2023-03-13T21:25:31.869Z,85.87
2023-03-13T21:27:58.763Z,85.36
2023-03-13T21:30:25.388Z,86.05
2023-03-13T21:32:52.227Z,85.91
2023-03-13T21:35:18.958Z,87.03
2023-03-13T21:37:46.010Z,87.87
2023-03-13T21:40:12.956Z,88.22
2023-03-13T21:42:40.126Z,87.67
2023-03-13T21:45:08.006Z,87.93
2023-03-13T21:47:37.953Z,87.83
2023-03-13T21:50:07.129Z,87.56
2023-03-13T21:52:40.634Z,87.82
2023-03-13T21:55:11.684Z,87.87
2023-03-13T21:57:38.482Z,88.00
2023-03-13T22:00:08.121Z,88.77
2023-03-13T22:02:36.411Z,88.26
2023-03-13T22:05:04.589Z,87.76
2023-03-13T22:07:31.460Z,88.68
2023-03-13T22:09:58.362Z,89.02
2023-03-13T22:12:25.727Z,88.75
2023-03-13T22:14:53.652Z,89.69
2023-03-13T22:17:22.150Z,89.83
2023-03-13T22:19:49.470Z,90.62
2023-03-13T22:22:17.203Z,90.92
2023-03-13T22:24:43.837Z,90.16
2023-03-13T22:27:10.825Z,89.94
2023-03-13T22:29:37.431Z,88.81
2023-03-13T22:32:04.717Z,90.15
2023-03-13T22:34:31.563Z,90.63
2023-03-13T22:36:58.190Z,91.50
2023-03-13T22:39:24.829Z,91.68
2023-03-13T22:41:51.561Z,91.91
2023-03-13T22:44:18.192Z,91.83
2023-03-13T22:46:45.133Z,91.95
2023-03-13T22:49:11.750Z,92.08
2023-03-13T22:51:38.481Z,92.02
2023-03-13T22:54:05.169Z,92.12
2023-03-13T22:56:31.905Z,90.93
2023-03-13T22:58:58.564Z,90.43
2023-03-13T23:01:26.575Z,90.26
2023-03-13T23:03:53.274Z,89.97
2023-03-13T23:06:24.104Z,90.46
2023-03-13T23:08:51.234Z,90.23
2023-03-13T23:11:18.161Z,90.82
2023-03-13T23:13:44.983Z,91.38
2023-03-13T23:16:12.747Z,91.83
2023-03-13T23:18:40.668Z,91.82
2023-03-13T23:21:12.859Z,90.39
2023-03-13T23:23:40.613Z,90.71
2023-03-13T23:26:10.320Z,90.89
2023-03-13T23:28:38.034Z,91.08
2023-03-13T23:31:19.429Z,90.73
2023-03-13T23:33:47.442Z,90.52
2023-03-13T23:36:16.790Z,90.62
2023-03-13T23:38:43.850Z,91.09
2023-03-13T23:41:14.123Z,90.34
2023-03-13T23:43:41.338Z,90.21
2023-03-13T23:46:19.093Z,90.41
2023-03-13T23:48:46.055Z,90.93
2023-03-13T23:51:12.723Z,92.22
2023-03-13T23:53:42.319Z,92.61
2023-03-13T23:56:10.701Z,92.93
2023-03-13T23:58:37.362Z,93.04
